Time;durP1;ratioP1;P1;durP2;ratioP2;P2;SDS_P1;SDS_P2;PMS_P1;PMS_P2;Temp;Humidity;BMP_temperature;BMP_pressure;BME280_temperature;BME280_humidity;BME280_pressure;Samples;Min_cycle;Max_cycle;Signal;HPM_P1;HPM_P2
2021/05/09 00:01:11;;;;;;;3.30;1.57;;;;;;;16.28;68.46;99359.94;4984346;28;20047;-68
2021/05/09 00:03:37;;;;;;;3.27;1.60;;;;;;;16.30;68.85;99363.19;4979355;28;20553;-71
2021/05/09 00:06:05;;;;;;;6.30;2.23;;;;;;;16.29;68.57;99361.56;4977596;28;20098;-70
2021/05/09 00:08:31;;;;;;;6.43;2.10;;;;;;;16.18;68.78;99345.47;4982630;28;20057;-69
2021/05/09 00:10:57;;;;;;;18.02;2.63;;;;;;;16.11;68.68;99337.56;4979664;28;20520;-70
2021/05/09 00:13:24;;;;;;;7.10;2.30;;;;;;;16.22;68.73;99358.50;4976034;28;20049;-70
2021/05/09 00:15:51;;;;;;;2.10;1.23;;;;;;;16.30;68.66;99360.38;4979704;28;20047;-69
2021/05/09 00:18:18;;;;;;;6.93;2.40;;;;;;;16.24;68.75;99350.53;4974386;28;20038;-70
2021/05/09 00:20:44;;;;;;;4.13;1.47;;;;;;;16.24;68.75;99353.34;4982184;28;20047;-75
2021/05/09 00:23:11;;;;;;;3.77;1.83;;;;;;;16.23;68.68;99340.41;4983755;28;20105;-75
2021/05/09 00:25:39;;;;;;;1.70;1.20;;;;;;;16.26;68.63;99336.91;4978857;28;20053;-78
2021/05/09 00:28:05;;;;;;;3.57;1.50;;;;;;;16.17;69.28;99336.19;4977807;28;20046;-77
2021/05/09 00:30:31;;;;;;;3.70;2.23;;;;;;;16.28;68.47;99354.28;4976622;28;20046;-74
2021/05/09 00:32:58;;;;;;;3.20;1.53;;;;;;;16.28;68.61;99342.22;4980102;28;20047;-72
2021/05/09 00:35:26;;;;;;;2.57;1.50;;;;;;;16.17;69.04;99340.97;4981252;28;20059;-77
2021/05/09 00:37:52;;;;;;;3.67;2.00;;;;;;;16.05;69.19;99305.16;4980385;28;20042;-77
2021/05/09 00:40:18;;;;;;;6.47;1.70;;;;;;;16.20;69.06;99324.19;4971839;28;20054;-79
2021/05/09 00:42:44;;;;;;;3.03;1.03;;;;;;;15.75;68.89;99240.56;4979318;28;20135;-79
2021/05/09 00:45:11;;;;;;;3.73;1.30;;;;;;;16.27;68.83;99312.38;4983007;28;20419;-76
2021/05/09 00:47:37;;;;;;;3.13;1.77;;;;;;;16.33;68.44;99316.63;4979664;28;20049;-75
2021/05/09 00:50:05;;;;;;;3.07;1.30;;;;;;;16.22;69.31;99307.78;4977292;28;20399;-81
2021/05/09 00:52:36;;;;;;;5.60;1.83;;;;;;;16.20;68.94;99307.31;4981509;28;20518;-71
2021/05/09 00:55:04;;;;;;;1.93;1.20;;;;;;;16.24;69.00;99297.00;4978558;28;20680;-74
2021/05/09 00:57:35;;;;;;;1.53;0.63;;;;;;;16.22;69.36;99307.78;4974382;28;20046;-72
2021/05/09 01:00:06;;;;;;;1.33;1.20;;;;;;;16.15;69.28;99292.63;4973219;28;20038;-72
2021/05/09 01:02:33;;;;;;;6.17;1.60;;;;;;;16.19;69.55;99296.41;4981825;28;20058;-71
2021/05/09 01:05:03;;;;;;;4.67;1.70;;;;;;;16.20;69.71;99290.41;4977027;28;20105;-72
2021/05/09 01:07:30;;;;;;;5.32;1.30;;;;;;;16.03;70.50;99291.44;4974307;28;20050;-70
2021/05/09 01:09:59;;;;;;;5.13;1.80;;;;;;;16.05;70.10;99282.63;4978349;28;20046;-70
2021/05/09 01:12:29;;;;;;;1.33;0.90;;;;;;;16.06;70.33;99264.56;4981726;28;20051;-75
2021/05/09 01:14:55;;;;;;;3.20;1.85;;;;;;;15.95;70.72;99278.28;4980539;28;20050;-76
2021/05/09 01:17:22;;;;;;;3.17;1.13;;;;;;;15.91;70.80;99253.97;4982753;28;20440;-78
2021/05/09 01:19:48;;;;;;;3.40;1.50;;;;;;;15.97;70.60;99275.94;4976208;28;20182;-79
2021/05/09 01:22:14;;;;;;;3.83;0.90;;;;;;;15.96;70.71;99242.47;4977704;28;20074;-73
2021/05/09 01:24:41;;;;;;;4.37;1.40;;;;;;;15.98;70.90;99237.34;4980654;28;20060;-74
2021/05/09 01:27:07;;;;;;;1.57;1.07;;;;;;;15.98;70.76;99231.72;4977776;28;20054;-70
2021/05/09 01:29:35;;;;;;;5.33;1.50;;;;;;;15.92;71.12;99221.84;4979938;28;20049;-71
2021/05/09 01:32:04;;;;;;;5.00;1.70;;;;;;;15.99;70.64;99227.72;4973812;28;20055;-70
2021/05/09 01:34:35;;;;;;;1.27;1.07;;;;;;;16.01;70.66;99231.00;4979092;28;20496;-69
2021/05/09 01:37:04;;;;;;;1.47;1.03;;;;;;;15.97;70.76;99219.63;4974589;28;20306;-72
2021/05/09 01:39:30;;;;;;;3.93;1.00;;;;;;;15.99;70.56;99216.44;4980211;28;20050;-68
2021/05/09 01:41:57;;;;;;;1.80;1.07;;;;;;;15.93;70.49;99198.13;4972531;28;20412;-69
2021/05/09 01:44:24;;;;;;;1.60;0.77;;;;;;;16.00;70.50;99206.81;4974527;28;20439;-70
2021/05/09 01:46:51;;;;;;;4.17;1.60;;;;;;;15.89;70.54;99181.13;4976794;28;20651;-68
2021/05/09 01:49:17;;;;;;;1.20;0.93;;;;;;;16.03;70.58;99201.34;4973792;28;20093;-68
2021/05/09 01:51:44;;;;;;;2.60;1.37;;;;;;;15.90;70.82;99167.84;4975843;28;20411;-67
2021/05/09 01:54:10;;;;;;;2.40;1.00;;;;;;;15.92;70.67;99168.34;4979445;28;20495;-70
2021/05/09 01:56:37;;;;;;;3.37;1.70;;;;;;;16.03;70.39;99149.81;4975169;28;20039;-70
2021/05/09 01:59:04;;;;;;;2.63;1.20;;;;;;;16.05;69.63;99147.47;4972910;28;20483;-68
2021/05/09 02:01:30;;;;;;;4.68;1.30;;;;;;;16.03;69.86;99147.84;4977092;28;20042;-68
2021/05/09 02:03:57;;;;;;;0.77;0.77;;;;;;;16.03;69.77;99135.72;4976515;28;20512;-70
2021/05/09 02:06:23;;;;;;;2.63;1.17;;;;;;;16.01;70.25;99163.44;4975658;28;21677;-68
2021/05/09 02:08:49;;;;;;;4.77;1.17;;;;;;;16.04;70.02;99134.56;4978269;28;20534;-71
2021/05/09 02:11:16;;;;;;;1.90;0.80;;;;;;;15.70;70.73;99097.25;4975515;28;20094;-70
2021/05/09 02:13:43;;;;;;;3.87;1.30;;;;;;;15.67;70.67;99091.50;4976100;28;20408;-71
2021/05/09 02:16:10;;;;;;;1.87;1.63;;;;;;;15.75;71.12;99105.44;4977517;28;20081;-69
2021/05/09 02:18:36;;;;;;;1.87;0.83;;;;;;;15.69;71.06;99106.88;4973371;28;20042;-71
2021/05/09 02:21:03;;;;;;;0.83;0.67;;;;;;;15.79;70.56;99083.88;4982991;28;20050;-71
2021/05/09 02:23:29;;;;;;;1.63;1.03;;;;;;;16.00;69.79;99103.50;4980246;28;20053;-70
2021/05/09 02:25:56;;;;;;;8.07;1.70;;;;;;;15.75;70.59;99090.56;4974335;28;20492;-72
2021/05/09 02:28:22;;;;;;;3.03;1.23;;;;;;;15.69;70.63;99090.00;4978775;28;20042;-72
2021/05/09 02:30:48;;;;;;;2.33;1.20;;;;;;;15.70;70.63;99091.63;4980137;28;20050;-72
2021/05/09 02:33:15;;;;;;;1.90;1.20;;;;;;;15.70;70.13;99069.09;4971756;28;20050;-72
2021/05/09 02:35:41;;;;;;;1.07;0.90;;;;;;;15.90;69.67;99077.78;4976338;28;20050;-73
2021/05/09 02:38:07;;;;;;;2.83;1.50;;;;;;;15.58;69.85;99050.19;4977862;28;20042;-73
2021/05/09 02:40:34;;;;;;;2.10;1.40;;;;;;;15.94;69.29;99082.38;4983137;28;20092;-74
2021/05/09 02:43:00;;;;;;;1.63;1.23;;;;;;;15.87;69.49;99056.81;4980444;28;20050;-75
2021/05/09 02:45:26;;;;;;;2.53;1.03;;;;;;;15.93;69.34;99079.88;4981803;28;20047;-75
2021/05/09 02:47:57;;;;;;;1.07;0.70;;;;;;;15.89;68.84;99065.69;4984640;28;20050;-70
2021/05/09 02:50:23;;;;;;;3.50;0.83;;;;;;;15.97;68.75;99072.41;4978268;28;20410;-71
2021/05/09 02:52:49;;;;;;;4.73;1.30;;;;;;;15.99;68.97;99076.47;4972837;28;20061;-70
2021/05/09 02:55:16;;;;;;;2.87;1.20;;;;;;;15.98;68.78;99079.66;4975895;28;20488;-71
2021/05/09 02:57:42;;;;;;;2.40;1.17;;;;;;;15.96;68.53;99054.66;4971869;28;20086;-70
2021/05/09 03:00:09;;;;;;;3.00;1.07;;;;;;;15.98;68.45;99074.84;4976350;28;20053;-71
2021/05/09 03:02:38;;;;;;;2.92;1.23;;;;;;;15.94;68.50;99071.09;4980171;28;20046;-73
2021/05/09 03:05:05;;;;;;;2.60;0.73;;;;;;;15.87;68.30;99057.63;4977300;28;20506;-73
2021/05/09 03:07:31;;;;;;;1.00;0.80;;;;;;;15.99;68.13;99064.41;4976761;28;20051;-72
2021/05/09 03:09:58;;;;;;;0.77;0.57;;;;;;;16.10;67.50;99077.66;4979884;28;20094;-72
2021/05/09 03:12:24;;;;;;;4.97;1.03;;;;;;;16.19;67.29;99068.25;4984976;28;20407;-72
2021/05/09 03:14:51;;;;;;;3.60;1.17;;;;;;;16.12;67.29;99068.84;4979438;28;20496;-72
2021/05/09 03:17:18;;;;;;;3.13;1.00;;;;;;;16.22;66.62;99057.09;4977739;28;20050;-73
2021/05/09 03:19:44;;;;;;;1.73;1.10;;;;;;;16.24;66.67;99065.19;4981864;28;20467;-77
2021/05/09 03:22:10;;;;;;;0.43;0.43;;;;;;;16.15;66.59;99067.34;4978652;28;20039;-77
2021/05/09 03:24:40;;;;;;;1.13;0.60;;;;;;;16.08;66.76;99054.66;4979318;28;20050;-75
2021/05/09 03:27:11;;;;;;;4.95;0.80;;;;;;;16.17;66.52;99063.00;4979293;28;20563;-71
2021/05/09 03:29:37;;;;;;;2.83;1.17;;;;;;;16.04;67.29;99045.28;4986412;28;20052;-69
2021/05/09 03:32:03;;;;;;;2.03;1.10;;;;;;;15.83;68.52;99013.66;4979040;28;20456;-70
2021/05/09 03:34:30;;;;;;;1.73;0.80;;;;;;;15.69;68.71;99011.19;4986077;28;20384;-75
2021/05/09 03:36:57;;;;;;;2.77;0.87;;;;;;;15.83;68.31;99010.84;4978961;28;20074;-73
2021/05/09 03:39:23;;;;;;;1.23;0.60;;;;;;;15.75;69.05;99006.13;4983568;28;20448;-72
2021/05/09 03:41:50;;;;;;;0.87;0.53;;;;;;;15.84;68.79;99006.84;4974435;28;20058;-73
2021/05/09 03:44:16;;;;;;;2.27;0.90;;;;;;;15.93;68.28;99003.88;4977968;28;20051;-79
2021/05/09 03:46:42;;;;;;;0.97;0.67;;;;;;;15.83;68.32;98977.06;4979261;28;20050;-69
2021/05/09 03:49:09;;;;;;;2.33;0.63;;;;;;;16.01;67.76;98988.88;4980427;28;20615;-69
2021/05/09 03:51:38;;;;;;;0.47;0.43;;;;;;;16.00;67.78;99004.09;4976953;28;20054;-72
2021/05/09 03:54:07;;;;;;;3.77;1.37;;;;;;;15.85;68.09;99017.72;4979039;28;20042;-71
2021/05/09 03:56:33;;;;;;;2.37;0.70;;;;;;;15.76;68.66;98994.53;4979241;28;20054;-71
2021/05/09 03:59:00;;;;;;;1.07;0.67;;;;;;;15.36;70.28;98975.50;4975086;28;20046;-71
2021/05/09 04:01:26;;;;;;;2.23;0.83;;;;;;;15.28;70.77;99040.28;4978656;28;20050;-72
2021/05/09 04:03:53;;;;;;;0.77;0.43;;;;;;;14.86;72.70;99010.31;4978589;28;20125;-70
2021/05/09 04:06:20;;;;;;;7.13;1.80;;;;;;;14.63;74.24;99021.16;4975051;28;20476;-72
2021/05/09 04:08:46;;;;;;;2.13;0.70;;;;;;;14.44;75.17;99038.47;4974943;28;20046;-69
2021/05/09 04:11:13;;;;;;;3.67;1.00;;;;;;;14.35;75.61;99025.66;4977805;28;20047;-69
2021/05/09 04:13:57;;;;;;;2.10;0.93;;;;;;;14.01;77.84;99004.28;4980673;28;20412;-70
2021/05/09 04:16:23;;;;;;;0.97;0.67;;;;;;;13.83;79.30;99010.03;4973876;28;20065;-70
2021/05/09 04:18:51;;;;;;;0.87;0.60;;;;;;;13.86;79.09;98986.91;4978629;28;20058;-70
2021/05/09 04:21:20;;;;;;;3.80;1.00;;;;;;;13.82;79.67;99016.81;4976157;28;20046;-70
2021/05/09 04:23:46;;;;;;;0.60;0.60;;;;;;;13.75;80.00;99036.97;4975597;28;20039;-69
2021/05/09 04:26:13;;;;;;;1.13;0.67;;;;;;;13.87;79.51;99027.81;4974918;28;20042;-73
2021/05/09 04:28:39;;;;;;;0.57;0.40;;;;;;;13.90;79.60;99043.97;4979826;28;20043;-70
2021/05/09 04:31:05;;;;;;;1.23;0.50;;;;;;;14.03;78.81;99049.69;4979540;28;20054;-71
2021/05/09 04:33:34;;;;;;;0.90;0.67;;;;;;;13.95;79.11;99052.22;4976497;28;20053;-69
2021/05/09 04:36:01;;;;;;;0.33;0.33;;;;;;;14.29;77.82;99100.88;4977356;28;20534;-73
2021/05/09 04:38:27;;;;;;;0.20;0.20;;;;;;;14.41;77.31;99072.84;4985486;28;20042;-69
2021/05/09 04:40:53;;;;;;;0.30;0.30;;;;;;;14.49;76.89;99087.16;4977969;28;20054;-75
2021/05/09 04:43:21;;;;;;;0.10;0.10;;;;;;;14.53;76.81;99076.91;4975484;28;20484;-69
2021/05/09 04:45:53;;;;;;;0.20;0.20;;;;;;;14.64;76.85;99092.22;4977083;28;20129;-73
2021/05/09 04:48:20;;;;;;;0.10;0.10;;;;;;;14.84;76.61;99102.63;4980202;28;20496;-70
2021/05/09 04:50:47;;;;;;;0.00;0.00;;;;;;;14.96;76.40;99110.28;4974023;28;20101;-70
2021/05/09 04:53:37;;;;;;;0.10;0.10;;;;;;;14.90;76.42;99120.06;4980143;28;20050;-71
2021/05/09 04:56:06;;;;;;;;;;;;;;;15.00;76.42;99127.25;4980036;28;20046;-75
2021/05/09 04:58:35;;;;;;;0.10;0.10;;;;;;;14.88;76.24;99128.03;4982222;28;19925;-74
2021/05/09 05:01:03;;;;;;;0.20;0.20;;;;;;;14.85;76.38;99135.16;4977593;28;20096;-71
2021/05/09 05:03:30;;;;;;;0.00;0.00;;;;;;;14.86;76.54;99134.00;4977543;28;20380;-72
2021/05/09 05:05:57;;;;;;;0.10;0.10;;;;;;;14.88;76.34;99136.47;4976474;28;20051;-71
2021/05/09 05:08:24;;;;;;;0.10;0.10;;;;;;;14.91;76.41;99149.84;4976823;28;20046;-76
2021/05/09 05:10:50;;;;;;;0.10;0.10;;;;;;;14.93;76.29;99141.88;4973402;28;20047;-76
2021/05/09 05:13:25;;;;;;;0.10;0.10;;;;;;;14.90;76.36;99143.38;4979748;28;20046;-71
2021/05/09 05:15:53;;;;;;;0.10;0.10;;;;;;;14.90;76.04;99143.38;4981065;28;20050;-71
2021/05/09 05:18:21;;;;;;;0.07;0.07;;;;;;;14.89;76.00;99140.91;4981137;28;20053;-67
2021/05/09 05:20:48;;;;;;;0.10;0.10;;;;;;;14.86;76.18;99144.41;4981081;28;20050;-66
2021/05/09 05:23:15;;;;;;;0.10;0.10;;;;;;;14.84;76.17;99139.16;4976398;28;20057;-69
2021/05/09 05:25:42;;;;;;;0.00;0.00;;;;;;;14.82;76.06;99144.28;4972973;28;20051;-68
2021/05/09 05:28:09;;;;;;;0.07;0.07;;;;;;;14.84;76.06;99144.78;4980622;28;20409;-67
2021/05/09 05:30:37;;;;;;;0.10;0.10;;;;;;;14.85;75.89;99148.41;4972411;28;20061;-64
2021/05/09 05:33:07;;;;;;;0.10;0.10;;;;;;;14.75;76.09;99151.63;4975478;28;20050;-67
2021/05/09 05:35:34;;;;;;;0.00;0.00;;;;;;;14.81;76.06;99167.13;4978992;28;20046;-65
2021/05/09 05:38:07;;;;;;;0.00;0.00;;;;;;;14.83;76.18;99170.41;4976857;28;20117;-65
2021/05/09 05:40:33;;;;;;;0.10;0.10;;;;;;;14.83;76.25;99178.81;4980661;28;20046;-65
2021/05/09 05:42:59;;;;;;;0.10;0.10;;;;;;;14.82;76.31;99169.56;4977491;28;20051;-67
2021/05/09 05:45:26;;;;;;;0.00;0.00;;;;;;;14.81;76.29;99169.94;4974870;28;20048;-66
2021/05/09 05:47:52;;;;;;;0.10;0.10;;;;;;;14.80;76.28;99176.69;4976795;28;20054;-66
2021/05/09 05:50:18;;;;;;;0.00;0.00;;;;;;;14.83;76.15;99176.00;4980302;28;20061;-67
2021/05/09 05:52:49;;;;;;;0.00;0.00;;;;;;;14.80;76.27;99171.06;4974200;28;20035;-67
2021/05/09 05:55:18;;;;;;;0.10;0.10;;;;;;;14.80;76.24;99183.16;4978487;28;20043;-66
2021/05/09 05:57:45;;;;;;;0.10;0.10;;;;;;;14.69;76.13;99170.66;4977588;28;20046;-66
2021/05/09 06:00:12;;;;;;;0.10;0.10;;;;;;;14.63;76.27;99172.03;4976329;28;20046;-68
2021/05/09 06:02:38;;;;;;;0.10;0.10;;;;;;;14.60;76.42;99172.72;4981707;28;20043;-68
2021/05/09 06:05:05;;;;;;;0.10;0.10;;;;;;;14.56;76.27;99174.56;4978304;28;20050;-69
2021/05/09 06:07:31;;;;;;;0.10;0.10;;;;;;;14.49;76.25;99177.06;4973838;28;20058;-68
2021/05/09 06:09:58;;;;;;;0.10;0.10;;;;;;;14.41;76.36;99171.16;4975492;28;20054;-68
2021/05/09 06:12:24;;;;;;;0.10;0.10;;;;;;;14.39;76.46;99176.31;4973523;28;20053;-69
2021/05/09 06:14:51;;;;;;;0.10;0.10;;;;;;;14.36;76.54;99185.41;4978315;28;20447;-68
2021/05/09 06:17:17;;;;;;;0.10;0.10;;;;;;;14.24;76.62;99179.69;4980255;28;20053;-67
2021/05/09 06:19:44;;;;;;;0.00;0.00;;;;;;;13.10;77.15;99035.41;4978688;28;20133;-69
2021/05/09 06:22:10;;;;;;;0.10;0.10;;;;;;;13.88;77.65;99175.41;4982033;28;20050;-68
2021/05/09 06:24:36;;;;;;;0.10;0.10;;;;;;;13.81;77.77;99175.09;4972090;28;20047;-69
2021/05/09 06:27:04;;;;;;;0.07;0.07;;;;;;;13.79;77.81;99177.41;4978319;28;20046;-69
2021/05/09 06:29:30;;;;;;;0.00;0.00;;;;;;;13.77;77.89;99173.28;4976002;28;20051;-68
2021/05/09 06:31:57;;;;;;;0.10;0.10;;;;;;;13.78;77.87;99175.78;4975498;28;20077;-70
2021/05/09 06:34:26;;;;;;;0.10;0.10;;;;;;;13.84;77.88;99191.25;4981605;28;20049;-69
2021/05/09 06:36:53;;;;;;;0.00;0.00;;;;;;;13.84;77.72;99190.41;4978347;28;20416;-69
2021/05/09 06:39:25;;;;;;;0.10;0.10;;;;;;;13.89;77.59;99182.66;4981185;28;20043;-69
2021/05/09 06:41:52;;;;;;;0.10;0.10;;;;;;;13.87;77.51;99173.72;4974763;28;20046;-70
2021/05/09 06:44:21;;;;;;;0.10;0.10;;;;;;;13.96;77.73;99182.94;4988490;28;20052;-71
2021/05/09 06:46:47;;;;;;;0.10;0.10;;;;;;;13.96;77.54;99180.16;4977325;28;20038;-70
2021/05/09 06:49:14;;;;;;;0.10;0.10;;;;;;;13.96;77.39;99182.13;4964357;28;20054;-69
2021/05/09 06:51:40;;;;;;;0.00;0.00;;;;;;;13.95;77.45;99186.09;4981579;28;20096;-69
2021/05/09 06:54:07;;;;;;;0.00;0.00;;;;;;;13.94;77.33;99185.25;4979627;28;20039;-70
2021/05/09 06:56:33;;;;;;;0.10;0.10;;;;;;;13.92;77.62;99181.97;4981541;28;20121;-70
2021/05/09 06:58:59;;;;;;;0.10;0.10;;;;;;;13.95;77.59;99186.09;4980602;28;20054;-71
2021/05/09 07:01:26;;;;;;;0.10;0.10;;;;;;;14.01;77.69;99190.34;4978432;28;20101;-72
2021/05/09 07:03:53;;;;;;;0.10;0.10;;;;;;;14.13;77.78;99198.06;4979451;28;20051;-71
2021/05/09 07:06:19;;;;;;;0.00;0.00;;;;;;;14.31;77.62;99210.03;4981202;28;20085;-71
2021/05/09 07:08:45;;;;;;;0.00;0.00;;;;;;;14.36;77.66;99210.69;4979083;28;20049;-70
2021/05/09 07:11:11;;;;;;;0.10;0.10;;;;;;;14.48;77.53;99200.69;4978921;28;20053;-70
2021/05/09 07:13:37;;;;;;;0.10;0.10;;;;;;;14.54;77.58;99194.56;4973076;28;20058;-69
2021/05/09 07:16:04;;;;;;;0.10;0.10;;;;;;;14.60;77.51;99198.03;4975010;28;20054;-71
2021/05/09 07:18:31;;;;;;;0.10;0.10;;;;;;;14.65;77.60;99211.84;4975354;28;20046;-72
2021/05/09 07:21:00;;;;;;;0.07;0.07;;;;;;;14.61;77.40;99205.28;4976460;28;20051;-70
2021/05/09 07:23:28;;;;;;;0.05;0.05;;;;;;;14.62;77.49;99212.53;4972285;28;20595;-71
2021/05/09 07:25:54;;;;;;;0.10;0.10;;;;;;;14.67;77.22;99237.63;4979760;28;20053;-71
2021/05/09 07:28:23;;;;;;;0.10;0.10;;;;;;;14.78;77.33;99244.50;4977488;28;20039;-72
2021/05/09 07:30:49;;;;;;;0.10;0.10;;;;;;;14.50;77.15;99189.97;4972017;28;20065;-72
2021/05/09 07:33:16;;;;;;;0.10;0.10;;;;;;;14.77;77.30;99183.84;4973563;28;20134;-71
2021/05/09 07:35:43;;;;;;;0.10;0.10;;;;;;;14.75;77.36;99160.06;4971666;28;20039;-72
2021/05/09 07:38:12;;;;;;;0.10;0.10;;;;;;;14.71;77.30;99179.59;4975944;28;20050;-70
2021/05/09 07:40:39;;;;;;;0.10;0.10;;;;;;;14.71;76.95;99192.81;4971941;28;20053;-67
2021/05/09 07:43:11;;;;;;;0.00;0.00;;;;;;;14.60;76.66;99224.13;4979484;28;20046;-68
2021/05/09 07:45:39;;;;;;;0.10;0.10;;;;;;;14.48;76.67;99242.84;4976657;28;20057;-68
2021/05/09 07:48:05;;;;;;;0.00;0.00;;;;;;;14.35;76.97;99222.25;4985550;28;20061;-68
2021/05/09 07:50:32;;;;;;;0.23;0.23;;;;;;;14.29;76.91;99210.41;4979691;28;20057;-72
2021/05/09 07:53:01;;;;;;;2.00;0.40;;;;;;;14.27;76.99;99201.47;4983333;28;20047;-69
2021/05/09 07:55:28;;;;;;;0.93;0.60;;;;;;;14.22;76.96;99208.09;4980070;28;20066;-74
2021/05/09 07:57:55;;;;;;;1.27;0.40;;;;;;;14.22;76.97;99213.72;4976671;28;20110;-69
2021/05/09 08:00:22;;;;;;;1.00;0.40;;;;;;;14.17;76.84;99222.31;4982136;28;20058;-69
2021/05/09 08:02:49;;;;;;;3.60;0.77;;;;;;;14.25;76.89;99222.63;4979346;28;20087;-68
2021/05/09 08:05:18;;;;;;;2.63;1.00;;;;;;;14.27;76.89;99212.69;4977856;28;20038;-69
2021/05/09 08:08:02;;;;;;;4.33;0.70;;;;;;;14.35;77.34;99200.59;4980499;28;20145;-73
2021/05/09 08:10:35;;;;;;;1.10;0.60;;;;;;;14.31;76.98;99205.25;4978320;28;20061;-72
2021/05/09 08:13:08;;;;;;;1.37;0.60;;;;;;;14.39;77.26;99221.25;4984270;28;20058;-72
2021/05/09 08:15:34;;;;;;;2.50;1.10;;;;;;;14.44;76.84;99220.22;4977123;28;20053;-71
2021/05/09 08:18:01;;;;;;;3.43;0.50;;;;;;;14.23;77.12;99192.09;4979143;28;20124;-72
2021/05/09 08:20:28;;;;;;;1.40;0.87;;;;;;;14.20;77.21;99204.00;4976395;28;20062;-69
2021/05/09 08:22:55;;;;;;;1.40;0.60;;;;;;;14.06;77.31;99207.03;4981259;28;20070;-71
2021/05/09 08:25:22;;;;;;;1.80;0.60;;;;;;;14.05;77.20;99204.53;4974024;28;20538;-71
2021/05/09 08:27:49;;;;;;;6.30;1.33;;;;;;;14.05;77.16;99207.34;4975608;28;20047;-71
2021/05/09 08:30:17;;;;;;;1.50;1.30;;;;;;;13.96;77.34;99191.38;4980477;28;20047;-73
2021/05/09 08:32:44;;;;;;;1.40;1.20;;;;;;;13.94;77.46;99174.03;4974412;28;20496;-73
2021/05/09 08:35:11;;;;;;;2.03;1.13;;;;;;;13.98;77.60;99168.56;4984102;28;20046;-72
2021/05/09 08:37:39;;;;;;;2.40;1.33;;;;;;;13.99;77.51;99164.63;4981479;28;20112;-73
2021/05/09 08:40:07;;;;;;;1.83;1.23;;;;;;;14.10;77.21;99170.69;4979535;28;20054;-71
2021/05/09 08:42:36;;;;;;;2.05;0.90;;;;;;;14.18;77.50;99187.47;4978748;28;20058;-69
2021/05/09 08:45:03;;;;;;;2.43;1.20;;;;;;;14.01;77.77;99189.53;4979251;28;20961;-72
2021/05/09 08:47:37;;;;;;;0.50;0.40;;;;;;;13.81;78.43;99175.09;4976717;28;20053;-70
2021/05/09 08:50:08;;;;;;;5.40;0.87;;;;;;;13.66;78.41;99172.81;4974036;28;20046;-69
2021/05/09 08:52:38;;;;;;;5.03;1.43;;;;;;;13.62;78.49;99178.28;4980038;28;20058;-70
2021/05/09 08:55:07;;;;;;;4.03;1.67;;;;;;;13.69;78.09;99172.16;4981430;28;20050;-70
2021/05/09 08:57:34;;;;;;;1.70;0.97;;;;;;;13.85;78.00;99192.91;4975214;28;20043;-67
2021/05/09 09:00:02;;;;;;;4.13;1.27;;;;;;;13.99;77.79;99195.50;4978332;28;20054;-68
2021/05/09 09:02:40;;;;;;;3.50;1.50;;;;;;;14.19;77.75;99219.19;4980583;28;20109;-70
2021/05/09 09:05:08;;;;;;;8.18;1.52;;;;;;;14.29;77.74;99210.41;4977562;28;20050;-75
2021/05/09 09:07:49;;;;;;;3.17;1.43;;;;;;;14.31;78.09;99212.84;4976404;28;20487;-72
2021/05/09 09:10:33;;;;;;;1.90;1.30;;;;;;;14.44;77.82;99215.41;4978391;28;20658;-79
2021/05/09 09:13:02;;;;;;;2.73;0.93;;;;;;;14.56;77.41;99225.13;4977658;28;20053;-79
2021/05/09 09:16:02;;;;;;;1.77;1.10;;;;;;;14.69;77.73;99226.88;4974358;28;20540;-80
2021/05/09 09:18:34;;;;;;;2.67;1.13;;;;;;;14.72;77.54;99219.75;4957145;28;20046;-78
2021/05/09 09:21:20;;;;;;;4.20;1.20;;;;;;;14.75;77.44;99225.50;4977062;28;20062;-68
2021/05/09 09:23:50;;;;;;;1.83;0.90;;;;;;;14.79;76.93;99236.88;4977082;28;20102;-73
2021/05/09 09:26:26;;;;;;;2.88;1.17;;;;;;;14.78;77.18;99246.50;4982513;28;20053;-70
2021/05/09 09:28:53;;;;;;;2.90;0.97;;;;;;;14.82;77.00;99244.63;4979214;28;20053;-75
2021/05/09 09:31:56;;;;;;;3.60;1.10;;;;;;;14.86;77.34;99249.22;4982649;28;20052;-79
2021/05/09 09:34:40;;;;;;;1.30;1.10;;;;;;;14.80;77.27;99232.91;4923746;29;20593;-78
2021/05/09 09:37:09;;;;;;;1.87;1.00;;;;;;;14.80;76.83;99245.00;4981728;28;20132;-76
2021/05/09 09:39:50;;;;;;;3.83;1.30;;;;;;;14.82;77.11;99251.06;4963235;28;20062;-76
2021/05/09 09:42:35;;;;;;;4.40;1.40;;;;;;;14.86;77.07;99246.41;4980269;28;20484;-75
2021/05/09 09:45:30;;;;;;;4.37;1.53;;;;;;;14.88;77.18;99246.91;4975824;28;20050;-71
2021/05/09 09:48:02;;;;;;;5.00;1.50;;;;;;;14.92;76.94;99261.09;4972289;28;20051;-73
2021/05/09 09:50:49;;;;;;;2.63;1.30;;;;;;;14.96;77.20;99262.06;4972074;28;20042;-73
2021/05/09 09:53:39;;;;;;;1.80;1.20;;;;;;;15.02;77.19;99257.91;4972442;28;20051;-73
2021/05/09 09:56:19;;;;;;;1.45;1.08;;;;;;;15.14;76.76;99257.13;4972205;28;20047;-72
2021/05/09 09:58:55;;;;;;;1.80;1.30;;;;;;;15.15;76.65;99244.75;4972852;28;20068;-72
2021/05/09 10:01:30;;;;;;;4.27;1.57;;;;;;;14.99;76.76;99244.50;4972436;28;20508;-72
2021/05/09 10:04:06;;;;;;;5.30;1.53;;;;;;;15.00;76.48;99243.34;4972350;28;20058;-73
2021/05/09 10:06:38;;;;;;;5.87;1.87;;;;;;;15.07;76.26;99245.59;4976215;28;20046;-73
2021/05/09 10:09:06;;;;;;;1.40;1.07;;;;;;;15.09;76.17;99246.09;4972312;28;20058;-73
2021/05/09 10:11:33;;;;;;;2.13;1.03;;;;;;;15.19;75.98;99245.69;4975818;28;20055;-74
2021/05/09 10:14:00;;;;;;;3.27;1.80;;;;;;;15.35;76.07;99243.06;4972203;28;20054;-74
2021/05/09 10:16:34;;;;;;;1.30;1.10;;;;;;;15.36;76.32;99228.66;4973279;28;20042;-74
2021/05/09 10:19:02;;;;;;;3.23;1.87;;;;;;;15.78;76.10;99237.03;4972206;28;20193;-75
2021/05/09 10:21:36;;;;;;;3.93;1.63;;;;;;;15.92;76.48;99238.72;4977056;28;20407;-73
2021/05/09 10:24:13;;;;;;;2.50;1.07;;;;;;;15.78;76.19;99256.75;4973500;28;20130;-73
2021/05/09 10:27:04;;;;;;;5.40;1.87;;;;;;;15.80;76.00;99260.06;4976349;28;20054;-75
2021/05/09 10:29:37;;;;;;;3.07;1.60;;;;;;;15.79;75.58;99255.56;4971815;28;20058;-74
2021/05/09 10:32:08;;;;;;;4.43;1.60;;;;;;;15.98;76.00;99260.69;4971466;28;20050;-73
2021/05/09 10:34:57;;;;;;;4.17;1.30;;;;;;;16.07;75.84;99252.16;4974595;28;20054;-73
2021/05/09 10:37:42;;;;;;;1.80;0.97;;;;;;;16.00;75.63;99263.97;4974809;28;20057;-73
2021/05/09 10:40:24;;;;;;;3.10;1.47;;;;;;;15.94;75.48;99258.91;4981375;28;20120;-76
2021/05/09 10:43:07;;;;;;;4.87;1.40;;;;;;;15.97;75.63;99261.03;4984551;28;20059;-75
2021/05/09 10:45:34;;;;;;;5.30;1.40;;;;;;;16.07;75.58;99269.03;4983038;28;20043;-75
2021/05/09 10:48:32;;;;;;;4.87;1.30;;;;;;;16.16;75.69;99275.38;4971772;28;20412;-74
2021/05/09 10:51:01;;;;;;;3.60;1.00;;;;;;;16.13;75.27;99276.06;4979857;28;20058;-74
2021/05/09 10:53:33;;;;;;;8.13;1.38;;;;;;;16.14;75.27;99274.94;4971831;28;20086;-73
2021/05/09 10:56:03;;;;;;;4.67;1.67;;;;;;;16.16;74.88;99269.75;4971214;28;20411;-74
2021/05/09 10:58:38;;;;;;;4.63;1.90;;;;;;;16.35;75.33;99270.03;4971612;28;20057;-75
2021/05/09 11:01:10;;;;;;;3.57;1.63;;;;;;;16.61;75.36;99277.31;4971527;28;20054;-73
2021/05/09 11:03:36;;;;;;;2.28;1.30;;;;;;;16.91;74.87;99285.56;4971963;28;20380;-74
2021/05/09 11:06:04;;;;;;;11.13;2.25;;;;;;;17.11;74.69;99281.75;4971978;28;20055;-73
2021/05/09 11:08:42;;;;;;;3.03;1.75;;;;;;;17.50;74.98;99284.94;4971890;28;20057;-75
2021/05/09 11:11:30;;;;;;;7.60;1.40;;;;;;;18.27;75.07;99286.75;4973917;28;20051;-74
2021/05/09 11:13:57;;;;;;;4.00;1.40;;;;;;;18.81;73.86;99286.13;4972248;28;20488;-75
2021/05/09 11:16:24;;;;;;;5.88;1.80;;;;;;;19.04;73.26;99277.78;4971591;28;20043;-75
2021/05/09 11:19:01;;;;;;;3.75;1.45;;;;;;;19.36;73.76;99296.31;4972272;28;20043;-75
2021/05/09 11:21:31;;;;;;;3.63;1.23;;;;;;;19.77;73.65;99296.00;4975551;28;20051;-75
2021/05/09 11:23:58;;;;;;;1.50;1.10;;;;;;;20.31;73.21;99290.19;4977122;28;20058;-76
2021/05/09 11:26:42;;;;;;;4.30;1.17;;;;;;;20.93;72.41;99290.06;4976433;28;20407;-75
2021/05/09 11:29:16;;;;;;;5.97;1.27;;;;;;;21.65;70.69;99311.00;4974977;28;20117;-75
2021/05/09 11:31:47;;;;;;;4.88;1.60;;;;;;;22.22;69.05;99286.13;4975182;28;20078;-74
2021/05/09 11:34:15;;;;;;;2.30;0.90;;;;;;;22.37;68.09;99302.16;4974976;28;20057;-75
2021/05/09 11:36:44;;;;;;;5.25;1.10;;;;;;;22.38;68.23;99306.63;4975278;28;20539;-74
2021/05/09 11:39:13;;;;;;;4.25;1.15;;;;;;;22.45;68.49;99309.53;4981947;28;20086;-73
2021/05/09 11:41:57;;;;;;;3.15;1.05;;;;;;;22.59;68.96;99303.16;4978432;28;20078;-73
2021/05/09 11:44:30;;;;;;;4.88;0.90;;;;;;;22.78;68.54;99304.97;4974620;28;20066;-74